BWA237 SYEC-TTPP
Flight info
| Callsign | BWA237 |
|---|---|
| Flight time | N/A |
| Altitude | 16000 |
| Route | VOKAV DCT POS |
| Aircraft | AT76/M-SDFGIRY/S |
Departure
| Time | 2026-05-01 15:04 |
|---|---|
| Airport | Eugene F. Correia International Airport (SYEC) |
Arrival
| Time | N/A |
|---|---|
| Airport | Piarco International Airport (TTPP) |
| Time | Latitude | Longitude | Altitude | Speed | Heading |
|---|---|---|---|---|---|
| 2026-05-01 14:33 | 6.80649 | -58.10441 | 26 ft | 0 kts | 46° |
| 2026-05-01 14:57 | 6.80658 | -58.10433 | 26 ft | 2 kts | 40° |
| 2026-05-01 14:57 | 6.80672 | -58.10429 | 26 ft | 2 kts | 2° |
| 2026-05-01 14:58 | 6.80692 | -58.10436 | 29 ft | 4 kts | 321° |
| 2026-05-01 14:58 | 6.80707 | -58.10464 | 30 ft | 4 kts | 311° |
| 2026-05-01 14:58 | 6.80713 | -58.10469 | 26 ft | 0 kts | 313° |
| 2026-05-01 14:58 | 6.80718 | -58.10474 | 26 ft | 3 kts | 321° |
| 2026-05-01 14:59 | 6.80739 | -58.10489 | 26 ft | 5 kts | 325° |
| 2026-05-01 14:59 | 6.80763 | -58.10515 | 26 ft | 5 kts | 289° |
| 2026-05-01 14:59 | 6.80746 | -58.10556 | 26 ft | 8 kts | 237° |
| 2026-05-01 14:59 | 6.80705 | -58.10610 | 30 ft | 11 kts | 230° |
| 2026-05-01 15:00 | 6.80603 | -58.10746 | 27 ft | 13 kts | 232° |
| 2026-05-01 15:00 | 6.80548 | -58.10815 | 28 ft | 13 kts | 231° |
| 2026-05-01 15:00 | 6.80492 | -58.10891 | 28 ft | 14 kts | 234° |
| 2026-05-01 15:01 | 6.80431 | -58.10972 | 28 ft | 15 kts | 227° |
| 2026-05-01 15:01 | 6.80360 | -58.11042 | 29 ft | 14 kts | 234° |
| 2026-05-01 15:01 | 6.80315 | -58.11117 | 29 ft | 12 kts | 240° |
| 2026-05-01 15:01 | 6.80255 | -58.11179 | 28 ft | 13 kts | 197° |
| 2026-05-01 15:02 | 6.80239 | -58.11205 | 28 ft | 0 kts | 322° |
| 2026-05-01 15:02 | 6.80256 | -58.11198 | 28 ft | 3 kts | 39° |
| 2026-05-01 15:02 | 6.80270 | -58.11184 | 28 ft | 4 kts | 47° |
| 2026-05-01 15:03 | 6.80302 | -58.11139 | 28 ft | 27 kts | 53° |
| 2026-05-01 15:03 | 6.80544 | -58.10822 | 28 ft | 87 kts | 52° |
| 2026-05-01 15:03 | 6.81025 | -58.10205 | 163 ft | 117 kts | 51° |
| 2026-05-01 15:03 | 6.81421 | -58.09717 | 577 ft | 120 kts | 50° |
| 2026-05-01 15:04 | 6.81984 | -58.09093 | 1263 ft | 116 kts | 40° |
| 2026-05-01 15:04 | 6.82745 | -58.08760 | 1595 ft | 123 kts | 9° |
| 2026-05-01 15:04 | 6.83573 | -58.08805 | 2013 ft | 117 kts | 354° |
| 2026-05-01 15:04 | 6.84356 | -58.09146 | 2194 ft | 138 kts | 315° |
| 2026-05-01 15:05 | 6.84716 | -58.10043 | 2537 ft | 136 kts | 289° |
| 2026-05-01 15:05 | 6.84978 | -58.10973 | 2754 ft | 145 kts | 297° |
| 2026-05-01 15:05 | 6.85713 | -58.11751 | 2774 ft | 162 kts | 327° |
| 2026-05-01 15:05 | 6.86645 | -58.12461 | 2898 ft | 177 kts | 327° |
| 2026-05-01 15:06 | 6.87681 | -58.13252 | 3039 ft | 190 kts | 326° |
| 2026-05-01 15:06 | 6.88721 | -58.14062 | 3326 ft | 192 kts | 325° |
| 2026-05-01 15:06 | 6.89766 | -58.14920 | 3594 ft | 195 kts | 323° |
| 2026-05-01 15:06 | 6.90796 | -58.15808 | 3878 ft | 196 kts | 322° |
| 2026-05-01 15:07 | 6.91842 | -58.16720 | 4156 ft | 197 kts | 322° |
| 2026-05-01 15:07 | 6.92881 | -58.17627 | 4424 ft | 198 kts | 322° |
| 2026-05-01 15:07 | 6.93925 | -58.18532 | 4708 ft | 199 kts | 322° |
| 2026-05-01 15:07 | 6.94977 | -58.19448 | 4978 ft | 200 kts | 322° |
| 2026-05-01 15:08 | 6.96030 | -58.20365 | 5244 ft | 201 kts | 322° |
| 2026-05-01 15:08 | 6.97094 | -58.21290 | 5504 ft | 202 kts | 322° |
| 2026-05-01 15:08 | 6.98161 | -58.22216 | 5766 ft | 203 kts | 322° |
| 2026-05-01 15:08 | 6.99230 | -58.23147 | 6016 ft | 204 kts | 321° |
| 2026-05-01 15:09 | 7.00321 | -58.24098 | 6252 ft | 205 kts | 322° |
| 2026-05-01 15:09 | 7.01403 | -58.25038 | 6491 ft | 206 kts | 322° |
| 2026-05-01 15:09 | 7.02487 | -58.25982 | 6738 ft | 207 kts | 322° |
| 2026-05-01 15:09 | 7.03576 | -58.26930 | 6982 ft | 207 kts | 321° |
| 2026-05-01 15:10 | 7.04667 | -58.27879 | 7212 ft | 208 kts | 321° |
| 2026-05-01 15:10 | 7.06867 | -58.29797 | 7685 ft | 210 kts | 321° |
| 2026-05-01 15:10 | 7.07973 | -58.30760 | 7913 ft | 210 kts | 321° |
| 2026-05-01 15:11 | 7.09079 | -58.31722 | 8132 ft | 211 kts | 321° |
| 2026-05-01 15:11 | 7.11308 | -58.33663 | 8571 ft | 212 kts | 321° |
| 2026-05-01 15:11 | 7.12429 | -58.34637 | 8789 ft | 213 kts | 321° |
| 2026-05-01 15:12 | 7.13548 | -58.35616 | 8994 ft | 214 kts | 321° |
| 2026-05-01 15:12 | 7.15806 | -58.37579 | 9398 ft | 215 kts | 321° |
| 2026-05-01 15:12 | 7.16957 | -58.38581 | 9598 ft | 216 kts | 321° |
| 2026-05-01 15:13 | 7.20387 | -58.41570 | 10183 ft | 218 kts | 320° |
| 2026-05-01 15:14 | 7.22694 | -58.43581 | 10543 ft | 220 kts | 320° |
| 2026-05-01 15:14 | 7.23870 | -58.44604 | 10732 ft | 221 kts | 320° |
| 2026-05-01 15:14 | 7.26198 | -58.46634 | 11099 ft | 222 kts | 320° |
| 2026-05-01 15:15 | 7.28534 | -58.48691 | 11460 ft | 224 kts | 320° |
| 2026-05-01 15:15 | 7.30883 | -58.50756 | 11817 ft | 225 kts | 320° |
| 2026-05-01 15:16 | 7.33255 | -58.52824 | 12163 ft | 226 kts | 321° |
| 2026-05-01 15:16 | 7.35645 | -58.54898 | 12505 ft | 227 kts | 320° |
| 2026-05-01 15:17 | 7.38052 | -58.57005 | 12808 ft | 228 kts | 320° |
| 2026-05-01 15:18 | 7.41675 | -58.60168 | 13250 ft | 230 kts | 320° |
| 2026-05-01 15:18 | 7.42875 | -58.61214 | 13386 ft | 230 kts | 320° |
| 2026-05-01 15:19 | 7.46522 | -58.64393 | 13771 ft | 232 kts | 320° |
| 2026-05-01 15:19 | 7.48964 | -58.66528 | 14017 ft | 233 kts | 320° |
| 2026-05-01 15:19 | 7.50190 | -58.67598 | 14135 ft | 233 kts | 320° |
| 2026-05-01 15:20 | 7.52651 | -58.69744 | 14370 ft | 234 kts | 320° |
| 2026-05-01 15:20 | 7.53895 | -58.70831 | 14478 ft | 234 kts | 320° |
| 2026-05-01 15:20 | 7.55129 | -58.71909 | 14585 ft | 235 kts | 320° |
| 2026-05-01 15:21 | 7.56366 | -58.72988 | 14693 ft | 235 kts | 320° |
| 2026-05-01 15:21 | 7.57603 | -58.74068 | 14797 ft | 236 kts | 320° |
| 2026-05-01 15:21 | 7.58843 | -58.75151 | 14896 ft | 236 kts | 320° |
| 2026-05-01 15:21 | 7.60083 | -58.76237 | 14995 ft | 237 kts | 320° |
| 2026-05-01 15:22 | 7.62616 | -58.78447 | 15202 ft | 237 kts | 320° |
| 2026-05-01 15:22 | 7.63453 | -58.79179 | 15265 ft | 237 kts | 320° |
| 2026-05-01 15:22 | 7.64668 | -58.80243 | 15351 ft | 238 kts | 320° |
| 2026-05-01 15:23 | 7.65793 | -58.81225 | 15429 ft | 238 kts | 320° |
| 2026-05-01 15:23 | 7.67049 | -58.82322 | 15521 ft | 238 kts | 320° |
| 2026-05-01 15:23 | 7.68286 | -58.83401 | 15611 ft | 239 kts | 320° |
| 2026-05-01 15:23 | 7.69576 | -58.84528 | 15697 ft | 239 kts | 320° |
| 2026-05-01 15:24 | 7.70835 | -58.85627 | 15797 ft | 239 kts | 320° |
| 2026-05-01 15:24 | 7.72086 | -58.86719 | 15904 ft | 238 kts | 320° |
| 2026-05-01 15:24 | 7.73245 | -58.87733 | 15951 ft | 240 kts | 320° |
| 2026-05-01 15:24 | 7.74485 | -58.88817 | 15970 ft | 243 kts | 320° |
| 2026-05-01 15:25 | 7.75768 | -58.89939 | 15980 ft | 246 kts | 320° |
| 2026-05-01 15:25 | 7.77067 | -58.91075 | 15988 ft | 248 kts | 320° |
| 2026-05-01 15:25 | 7.78393 | -58.92233 | 15989 ft | 250 kts | 320° |
| 2026-05-01 15:25 | 7.79710 | -58.93384 | 15991 ft | 252 kts | 320° |
| 2026-05-01 15:26 | 7.81036 | -58.94546 | 15990 ft | 253 kts | 320° |
| 2026-05-01 15:26 | 7.82372 | -58.95713 | 15992 ft | 255 kts | 320° |
| 2026-05-01 15:26 | 7.83715 | -58.96886 | 15992 ft | 256 kts | 320° |
| 2026-05-01 15:26 | 7.85058 | -58.98060 | 15990 ft | 256 kts | 320° |
| 2026-05-01 15:27 | 7.86410 | -58.99244 | 15988 ft | 257 kts | 320° |
| 2026-05-01 15:27 | 7.87761 | -59.00428 | 15990 ft | 258 kts | 320° |
| 2026-05-01 15:27 | 7.89116 | -59.01615 | 15989 ft | 258 kts | 320° |
| 2026-05-01 15:28 | 7.91827 | -59.03988 | 15990 ft | 258 kts | 320° |
| 2026-05-01 15:28 | 7.93186 | -59.05177 | 15992 ft | 259 kts | 320° |
| 2026-05-01 15:28 | 7.94545 | -59.06364 | 15994 ft | 259 kts | 320° |
| 2026-05-01 15:29 | 7.97272 | -59.08751 | 15991 ft | 260 kts | 320° |
| 2026-05-01 15:29 | 7.98638 | -59.09949 | 15990 ft | 260 kts | 320° |
| 2026-05-01 15:29 | 8.01385 | -59.12355 | 15994 ft | 260 kts | 320° |
| 2026-05-01 15:30 | 8.04125 | -59.14748 | 15990 ft | 260 kts | 320° |
| 2026-05-01 15:31 | 8.09598 | -59.19550 | 15983 ft | 260 kts | 320° |
| 2026-05-01 15:31 | 8.12326 | -59.21939 | 15983 ft | 259 kts | 320° |
| 2026-05-01 15:32 | 8.15049 | -59.24325 | 15981 ft | 259 kts | 320° |
| 2026-05-01 15:32 | 8.17790 | -59.26729 | 15981 ft | 259 kts | 320° |
| 2026-05-01 15:33 | 8.21872 | -59.30307 | 15981 ft | 259 kts | 320° |
| 2026-05-01 15:34 | 8.25964 | -59.33896 | 15982 ft | 259 kts | 320° |